createdAt,value
2023-02-03T00:00:10.734Z,3.40
2023-02-03T00:02:50.101Z,3.35
2023-02-03T00:05:23.061Z,3.33
2023-02-03T00:07:53.602Z,3.36
2023-02-03T00:10:27.884Z,3.31
2023-02-03T00:12:59.902Z,3.22
2023-02-03T00:15:34.502Z,3.14
2023-02-03T00:18:15.009Z,3.10
2023-02-03T00:20:45.435Z,3.19
2023-02-03T00:23:18.953Z,3.13
2023-02-03T00:25:48.542Z,3.09
2023-02-03T00:28:21.060Z,3.11
2023-02-03T00:30:53.599Z,3.06
2023-02-03T00:33:26.006Z,3.10
2023-02-03T00:35:57.415Z,3.09
2023-02-03T00:38:27.747Z,3.03
2023-02-03T00:40:55.011Z,3.02
2023-02-03T00:43:31.661Z,3.03
2023-02-03T00:45:59.280Z,3.06
2023-02-03T00:48:28.789Z,3.04
2023-02-03T00:50:58.487Z,3.02
2023-02-03T00:53:28.337Z,3.02
2023-02-03T00:55:57.082Z,3.08
2023-02-03T00:58:29.193Z,3.08
2023-02-03T01:01:03.372Z,3.06
2023-02-03T01:03:37.942Z,3.03
2023-02-03T01:06:17.695Z,2.98
2023-02-03T01:08:44.789Z,2.95
2023-02-03T01:11:15.245Z,2.93
2023-02-03T01:13:47.746Z,2.90
2023-02-03T01:16:21.770Z,2.96
2023-02-03T01:18:52.362Z,2.97
2023-02-03T01:21:24.903Z,2.90
2023-02-03T01:23:55.025Z,2.94
2023-02-03T01:26:24.394Z,2.99
2023-02-03T01:28:57.260Z,2.96
2023-02-03T01:31:30.281Z,3.05
2023-02-03T01:34:03.074Z,3.11
2023-02-03T01:36:36.740Z,3.07
2023-02-03T01:39:06.515Z,3.08
2023-02-03T01:41:39.021Z,3.09
2023-02-03T01:44:40.556Z,3.16
2023-02-03T01:47:34.142Z,3.10
2023-02-03T01:51:02.080Z,3.08
2023-02-03T01:54:30.841Z,2.97
2023-02-03T01:57:26.642Z,2.91
2023-02-03T02:00:17.950Z,2.92
2023-02-03T02:02:47.984Z,2.97
2023-02-03T02:05:33.975Z,3.01
2023-02-03T02:08:04.922Z,3.03
2023-02-03T02:10:38.026Z,3.05
2023-02-03T02:13:05.314Z,3.09
2023-02-03T02:15:55.243Z,3.11
2023-02-03T02:18:38.086Z,3.10
2023-02-03T02:21:26.726Z,3.10
2023-02-03T02:24:08.714Z,3.10
2023-02-03T02:27:05.400Z,3.10
2023-02-03T02:29:40.826Z,3.10
2023-02-03T02:32:22.403Z,3.05
2023-02-03T02:35:43.240Z,3.05
2023-02-03T02:38:35.093Z,3.13
2023-02-03T02:41:30.294Z,3.25
2023-02-03T02:44:07.056Z,3.27
2023-02-03T02:46:42.106Z,3.23
2023-02-03T02:49:26.979Z,3.25
2023-02-03T02:51:59.609Z,3.32
2023-02-03T02:54:29.441Z,3.35
2023-02-03T02:56:59.507Z,3.35
2023-02-03T02:59:32.732Z,3.45
2023-02-03T03:02:01.883Z,3.48
2023-02-03T03:04:31.622Z,3.42
2023-02-03T03:07:05.156Z,3.45
2023-02-03T03:09:48.583Z,3.49
2023-02-03T03:12:23.529Z,3.46
2023-02-03T03:15:07.577Z,3.42
2023-02-03T03:17:39.586Z,3.42
2023-02-03T03:20:14.248Z,3.37
2023-02-03T03:22:46.976Z,3.34
2023-02-03T03:25:43.175Z,3.37
2023-02-03T03:28:32.870Z,3.39
2023-02-03T03:31:27.354Z,3.43
2023-02-03T03:33:57.932Z,3.51
2023-02-03T03:36:39.989Z,3.56
2023-02-03T03:39:35.613Z,3.59
2023-02-03T03:42:16.587Z,3.55
2023-02-03T03:45:14.239Z,3.46
2023-02-03T03:48:09.870Z,3.42
2023-02-03T03:50:46.252Z,3.43
2023-02-03T03:53:17.716Z,3.41
2023-02-03T03:55:49.621Z,3.43
2023-02-03T03:58:23.166Z,3.49
2023-02-03T04:00:58.688Z,3.50
2023-02-03T04:03:32.597Z,3.47
2023-02-03T04:06:02.484Z,3.43
2023-02-03T04:08:31.642Z,3.39
2023-02-03T04:11:01.605Z,3.34
2023-02-03T04:13:29.371Z,3.40
2023-02-03T04:15:58.387Z,3.44
2023-02-03T04:18:30.553Z,3.47
2023-02-03T04:21:07.571Z,3.50
2023-02-03T04:23:35.567Z,3.47
2023-02-03T04:26:06.508Z,3.51
2023-02-03T04:28:40.301Z,3.58
2023-02-03T04:31:10.995Z,3.54
2023-02-03T04:33:41.777Z,3.61
2023-02-03T04:36:12.916Z,3.71
2023-02-03T04:38:45.399Z,3.80
2023-02-03T04:43:15.360Z,3.98
2023-02-03T04:45:47.066Z,3.91
2023-02-03T04:48:21.967Z,3.72
2023-02-03T04:50:50.995Z,3.54
2023-02-03T04:53:24.161Z,3.51
2023-02-03T04:55:55.804Z,3.54
2023-02-03T04:58:29.418Z,3.49
2023-02-03T05:00:58.181Z,3.42
2023-02-03T05:03:57.273Z,3.39
2023-02-03T05:06:33.045Z,3.36
2023-02-03T05:09:02.409Z,3.37
2023-02-03T05:11:36.303Z,3.37
2023-02-03T05:14:07.581Z,3.39
2023-02-03T05:16:41.596Z,3.39
2023-02-03T05:19:11.348Z,3.33
2023-02-03T05:21:45.231Z,3.29
2023-02-03T05:24:14.200Z,3.27
2023-02-03T05:26:46.262Z,3.23
2023-02-03T05:29:15.556Z,3.21
2023-02-03T05:31:52.378Z,3.28
2023-02-03T05:34:22.276Z,3.32
2023-02-03T05:36:57.741Z,3.32
2023-02-03T05:39:31.194Z,3.31
2023-02-03T05:42:05.291Z,3.29
2023-02-03T05:44:36.595Z,3.31
2023-02-03T05:47:09.009Z,3.34
2023-02-03T05:49:42.995Z,3.38
2023-02-03T05:52:17.283Z,3.45
2023-02-03T05:54:55.396Z,3.53
2023-02-03T05:57:48.723Z,3.58
2023-02-03T06:00:35.214Z,3.64
2023-02-03T06:03:06.107Z,3.69
2023-02-03T06:05:41.083Z,3.78
2023-02-03T06:08:11.500Z,3.78
2023-02-03T06:10:45.367Z,3.76
2023-02-03T06:13:48.709Z,3.82
2023-02-03T06:16:25.015Z,3.86
2023-02-03T06:18:55.941Z,3.92
2023-02-03T06:21:32.621Z,3.96
2023-02-03T06:24:07.654Z,3.94
2023-02-03T06:26:40.124Z,3.89
2023-02-03T06:29:13.406Z,3.85
2023-02-03T06:31:45.982Z,3.81
2023-02-03T06:34:15.886Z,3.85
2023-02-03T06:38:38.942Z,3.95
2023-02-03T06:42:54.563Z,3.73
2023-02-03T06:45:25.109Z,3.74
2023-02-03T06:47:53.973Z,3.68
2023-02-03T06:50:26.652Z,3.92
2023-02-03T06:52:54.539Z,4.03
2023-02-03T06:55:27.010Z,3.98
2023-02-03T06:57:57.272Z,3.69
2023-02-03T07:00:25.319Z,3.41
2023-02-03T07:02:57.787Z,3.20
2023-02-03T07:05:27.448Z,3.08
2023-02-03T07:07:59.648Z,3.24
2023-02-03T07:10:30.626Z,3.35
2023-02-03T07:13:07.149Z,3.37
2023-02-03T07:15:40.479Z,3.39
2023-02-03T07:18:10.099Z,3.24
2023-02-03T07:20:41.783Z,3.13
2023-02-03T07:23:16.239Z,3.08
2023-02-03T07:25:46.523Z,3.28
2023-02-03T07:28:18.819Z,3.52
2023-02-03T07:30:51.832Z,3.63
2023-02-03T07:34:00.911Z,3.65
2023-02-03T07:36:28.732Z,3.60
2023-02-03T07:38:58.416Z,3.35
2023-02-03T07:41:31.494Z,3.16
2023-02-03T07:44:02.835Z,3.05
2023-02-03T07:46:33.108Z,3.03
2023-02-03T07:49:03.920Z,3.27
2023-02-03T07:51:36.049Z,3.38
2023-02-03T07:54:08.401Z,3.45
2023-02-03T07:56:37.078Z,3.49
2023-02-03T07:59:08.513Z,3.50
2023-02-03T08:01:38.677Z,3.55
2023-02-03T08:04:16.641Z,3.61
2023-02-03T08:06:44.007Z,3.67
2023-02-03T08:09:24.643Z,3.73
2023-02-03T08:11:53.235Z,3.84
2023-02-03T08:14:26.621Z,3.92
2023-02-03T08:16:56.530Z,3.96
2023-02-03T08:19:38.419Z,3.89
2023-02-03T08:22:09.351Z,3.84
2023-02-03T08:24:38.411Z,3.99
2023-02-03T08:27:06.868Z,4.26
2023-02-03T08:29:38.797Z,4.28
2023-02-03T08:32:19.791Z,4.29
2023-02-03T08:34:54.924Z,4.33
2023-02-03T08:37:25.103Z,4.40
2023-02-03T08:39:55.735Z,4.45
2023-02-03T08:42:25.713Z,4.63
2023-02-03T08:45:04.871Z,4.83
2023-02-03T08:47:32.833Z,4.86
2023-02-03T08:50:03.702Z,4.72
2023-02-03T08:52:34.191Z,4.60
2023-02-03T08:55:06.095Z,4.52
2023-02-03T08:57:38.222Z,4.54
2023-02-03T09:00:08.670Z,4.76
2023-02-03T09:02:41.693Z,4.87
2023-02-03T09:05:10.451Z,5.00
2023-02-03T09:07:41.042Z,5.09
2023-02-03T09:10:11.660Z,5.16
2023-02-03T09:12:43.595Z,5.26
2023-02-03T09:15:17.199Z,5.36
2023-02-03T09:17:49.737Z,5.45
2023-02-03T09:20:18.932Z,5.32
2023-02-03T09:22:47.752Z,5.22
2023-02-03T09:25:16.349Z,5.12
2023-02-03T09:27:54.771Z,5.30
2023-02-03T09:30:28.090Z,5.62
2023-02-03T09:32:57.712Z,5.77
2023-02-03T09:35:26.949Z,5.89
2023-02-03T09:38:04.403Z,6.01
2023-02-03T09:40:35.859Z,6.10
2023-02-03T09:43:23.158Z,6.19
2023-02-03T09:45:54.495Z,6.08
2023-02-03T09:48:26.020Z,5.91
2023-02-03T09:50:54.778Z,5.85
2023-02-03T09:53:33.189Z,5.96
2023-02-03T09:56:11.000Z,5.91
2023-02-03T09:58:42.746Z,5.68
2023-02-03T10:01:18.293Z,5.50
2023-02-03T10:04:26.602Z,5.36
2023-02-03T10:07:28.715Z,5.45
2023-02-03T10:10:20.771Z,5.63
2023-02-03T10:12:58.994Z,5.65
2023-02-03T10:15:33.859Z,5.61
2023-02-03T10:18:11.247Z,5.47
2023-02-03T10:20:47.231Z,5.33
2023-02-03T10:23:38.169Z,5.16
2023-02-03T10:26:09.032Z,5.09
2023-02-03T10:28:41.785Z,5.32
2023-02-03T10:31:18.524Z,5.37
2023-02-03T10:33:47.223Z,5.36
2023-02-03T10:37:11.785Z,5.23
2023-02-03T10:39:44.362Z,5.12
2023-02-03T10:42:15.358Z,5.01
2023-02-03T10:44:57.879Z,5.13
2023-02-03T10:47:39.784Z,5.41
2023-02-03T10:50:22.215Z,5.47
2023-02-03T10:53:26.929Z,5.31
2023-02-03T10:56:10.337Z,5.21
2023-02-03T10:58:39.742Z,5.14
2023-02-03T11:01:16.913Z,5.20
2023-02-03T11:03:57.777Z,5.58
2023-02-03T11:06:28.891Z,5.81
2023-02-03T11:08:58.041Z,5.92
2023-02-03T11:11:31.591Z,5.86
2023-02-03T11:14:03.187Z,5.81
2023-02-03T11:16:34.988Z,5.75
2023-02-03T11:19:23.551Z,5.68
2023-02-03T11:21:57.005Z,5.68
2023-02-03T11:24:54.139Z,5.94
2023-02-03T11:27:24.533Z,6.15
2023-02-03T11:30:08.132Z,6.17
2023-02-03T11:32:37.957Z,6.02
2023-02-03T11:35:29.242Z,5.87
2023-02-03T11:38:01.055Z,5.73
2023-02-03T11:40:30.667Z,5.63
2023-02-03T11:43:03.010Z,5.56
2023-02-03T11:45:43.060Z,5.53
2023-02-03T11:48:35.744Z,5.67
2023-02-03T11:51:34.780Z,5.56
2023-02-03T11:54:32.179Z,5.31
2023-02-03T11:57:52.220Z,5.16
2023-02-03T12:01:11.007Z,5.06
2023-02-03T12:04:15.607Z,5.11
2023-02-03T12:07:19.910Z,5.39
2023-02-03T12:10:32.541Z,5.56
2023-02-03T12:13:23.453Z,5.62
2023-02-03T12:16:05.272Z,5.40
2023-02-03T12:18:41.494Z,5.21
2023-02-03T12:21:24.785Z,5.11
2023-02-03T12:24:06.181Z,5.07
2023-02-03T12:26:58.992Z,5.08
2023-02-03T12:29:55.770Z,5.37
2023-02-03T12:32:40.677Z,5.46
2023-02-03T12:35:18.353Z,5.31
2023-02-03T12:37:57.185Z,5.06
2023-02-03T12:40:49.455Z,4.94
2023-02-03T12:43:52.155Z,4.89
2023-02-03T12:47:13.838Z,4.80
2023-02-03T12:50:22.871Z,4.88
2023-02-03T12:53:17.104Z,4.96
2023-02-03T12:56:12.635Z,4.70
2023-02-03T12:58:52.228Z,4.47
2023-02-03T13:02:05.082Z,4.33
2023-02-03T13:04:42.981Z,4.29
2023-02-03T13:08:04.683Z,4.31
2023-02-03T13:10:43.507Z,3.86
2023-02-03T13:13:17.745Z,3.48
2023-02-03T13:15:50.460Z,3.17
2023-02-03T13:18:38.497Z,3.19
2023-02-03T13:21:18.171Z,3.32
2023-02-03T13:23:48.002Z,3.16
2023-02-03T13:26:42.862Z,2.91
2023-02-03T13:30:01.501Z,2.67
2023-02-03T13:33:05.632Z,2.65
2023-02-03T13:35:55.265Z,2.81
2023-02-03T13:38:36.421Z,2.82
2023-02-03T13:41:19.342Z,2.63
2023-02-03T13:43:51.101Z,2.41
2023-02-03T13:46:27.592Z,2.29
2023-02-03T13:48:58.948Z,2.48
2023-02-03T13:51:37.181Z,2.64
2023-02-03T13:54:33.943Z,2.71
2023-02-03T13:57:30.999Z,2.53
2023-02-03T14:00:03.228Z,2.45
2023-02-03T14:02:52.730Z,2.46
2023-02-03T14:05:49.111Z,2.68
2023-02-03T14:08:32.517Z,2.66
2023-02-03T14:11:39.826Z,2.45
2023-02-03T14:14:12.252Z,2.25
2023-02-03T14:16:54.132Z,2.13
2023-02-03T14:19:32.949Z,2.34
2023-02-03T14:22:10.246Z,2.49
2023-02-03T14:24:46.611Z,2.38
2023-02-03T14:27:30.213Z,2.21
2023-02-03T14:30:14.527Z,2.09
2023-02-03T14:32:55.343Z,2.13
2023-02-03T14:35:35.346Z,2.48
2023-02-03T14:38:13.423Z,2.61
2023-02-03T14:41:03.934Z,2.47
2023-02-03T14:43:55.726Z,2.33
2023-02-03T19:01:04.277Z,1.25
2023-02-03T19:03:44.958Z,1.23
2023-02-03T19:06:24.211Z,1.11
2023-02-03T19:08:54.429Z,0.99
2023-02-03T19:11:30.917Z,0.95
2023-02-03T19:14:00.396Z,1.11
2023-02-03T19:16:39.923Z,1.18
2023-02-03T19:19:17.058Z,1.20
2023-02-03T19:22:00.830Z,0.98
2023-02-03T19:24:32.388Z,0.80
2023-02-03T19:27:05.243Z,0.65
2023-02-03T19:29:39.240Z,0.59
2023-02-03T19:32:17.184Z,0.56
2023-02-03T19:34:48.670Z,0.77
2023-02-03T19:37:33.723Z,0.79
2023-02-03T19:40:06.749Z,0.78
2023-02-03T19:43:04.052Z,0.85
2023-02-03T19:45:39.063Z,0.87
2023-02-03T19:48:36.219Z,0.67
2023-02-03T19:51:07.022Z,0.53
2023-02-03T19:53:41.613Z,0.43
2023-02-03T19:56:15.489Z,0.36
2023-02-03T19:58:51.971Z,0.31
2023-02-03T20:01:26.995Z,0.48
2023-02-03T20:04:00.769Z,0.71
2023-02-03T20:06:39.505Z,0.77
2023-02-03T20:09:15.221Z,0.62
2023-02-03T20:11:57.158Z,0.47
2023-02-03T20:14:36.466Z,0.37
2023-02-03T20:17:33.018Z,0.29
2023-02-03T20:20:04.322Z,0.26
2023-02-03T20:22:39.437Z,0.56
2023-02-03T20:25:13.810Z,0.68
2023-02-03T20:27:47.456Z,0.58
2023-02-03T20:30:29.411Z,0.42
2023-02-03T20:32:58.218Z,0.30
2023-02-03T20:35:33.172Z,0.19
2023-02-03T20:38:03.875Z,0.10
2023-02-03T20:40:42.308Z,0.07
2023-02-03T20:43:25.360Z,0.26
2023-02-03T20:45:58.509Z,0.45
2023-02-03T20:48:32.606Z,0.52
2023-02-03T20:51:06.832Z,0.35
2023-02-03T20:53:38.899Z,0.18
2023-02-03T20:56:19.211Z,0.08
2023-02-03T20:59:44.042Z,-0.02
2023-02-03T21:05:46.406Z,0.01
2023-02-03T21:08:15.579Z,0.26
2023-02-03T21:10:45.817Z,0.30
2023-02-03T21:13:30.660Z,0.12
2023-02-03T21:16:02.033Z,-0.06
2023-02-03T21:18:37.777Z,-0.16
2023-02-03T21:21:16.934Z,-0.24
2023-02-03T21:23:53.585Z,-0.27
2023-02-03T21:26:33.613Z,-0.01
2023-02-03T21:29:03.739Z,0.23
2023-02-03T21:31:36.684Z,0.29
2023-02-03T21:34:27.531Z,0.13
2023-02-03T21:36:59.624Z,-0.04
2023-02-03T21:39:32.169Z,-0.15
2023-02-03T21:42:42.700Z,-0.23
2023-02-03T21:45:28.002Z,-0.36
2023-02-03T21:48:02.625Z,-0.42
2023-02-03T21:50:40.790Z,-0.13
2023-02-03T21:53:38.078Z,0.07
2023-02-03T21:56:24.064Z,0.04
2023-02-03T21:58:58.972Z,-0.17
2023-02-03T22:01:34.722Z,-0.30
2023-02-03T22:04:06.009Z,-0.40
2023-02-03T22:06:53.634Z,-0.48
2023-02-03T22:09:26.251Z,-0.50
2023-02-03T22:12:17.633Z,-0.30
2023-02-03T22:14:47.948Z,-0.10
2023-02-03T22:17:22.822Z,-0.05
2023-02-03T22:19:52.417Z,-0.23
2023-02-03T22:22:20.446Z,-0.39
2023-02-03T22:24:54.880Z,-0.47
2023-02-03T22:27:25.744Z,-0.56
2023-02-03T22:29:56.073Z,-0.63
2023-02-03T22:32:29.907Z,-0.67
2023-02-03T22:34:59.279Z,-0.45
2023-02-03T22:37:32.320Z,-0.24
2023-02-03T22:40:10.288Z,-0.14
2023-02-03T22:42:38.938Z,-0.29
2023-02-03T22:45:09.811Z,-0.43
2023-02-03T22:47:40.128Z,-0.53
2023-02-03T22:50:10.105Z,-0.60
2023-02-03T22:52:38.866Z,-0.67
2023-02-03T22:55:09.409Z,-0.76
2023-02-03T22:57:38.865Z,-0.82
2023-02-03T23:00:10.427Z,-0.55
2023-02-03T23:02:39.887Z,-0.36
2023-02-03T23:05:09.891Z,-0.37
2023-02-03T23:07:42.204Z,-0.55
2023-02-03T23:10:15.649Z,-0.71
2023-02-03T23:12:48.834Z,-0.83
2023-02-03T23:15:19.610Z,-0.91
2023-02-03T23:17:49.995Z,-1.02
2023-02-03T23:20:18.843Z,-1.09
2023-02-03T23:22:49.052Z,-0.89
2023-02-03T23:25:17.034Z,-0.76
2023-02-03T23:27:45.374Z,-0.64
2023-02-03T23:30:15.798Z,-0.46
2023-02-03T23:32:45.745Z,-0.59
2023-02-03T23:35:35.025Z,-0.73
2023-02-03T23:38:08.267Z,-0.82
2023-02-03T23:40:38.479Z,-0.86
2023-02-03T23:43:06.769Z,-0.85
2023-02-03T23:45:35.142Z,-0.78
2023-02-03T23:48:04.043Z,-0.41
2023-02-03T23:50:35.113Z,-0.15
2023-02-03T23:53:05.929Z,-0.04
2023-02-03T23:55:35.750Z,-0.11
2023-02-03T23:58:05.379Z,-0.16
